Search for airport 
image banner adimage banner adimage banner ad
image banner ad

KTLR - Mefford Field

Located in Tulare, United States

ICAO - TLR, IATA -

Data provided by Airmate  

General information

Coordinates: N36°9'24" W119°19'36"
Elevation is 265 feet MSL.
Magnetic variation is 12° East
View others Airports in California

Operational data

Special qualification required
Current time UTC:
Current local time:
Weather at : KVIS - Visalia Muni ( 19 km )
METAR: KVIS 211256Z AUTO 26003KT 10SM CLR 20/14 A2984 RMK AO2 SLP107 T02000144
TAF: KVIS 211120Z 2112/2212 30006KT P6SM SKC
View NOTAMs / SUP AIP / TFR affecting this airport [VIEW]
Communications frequencies: [VIEW]

Runways:

RWY identifierQFULength (ft)Width (ft)SurfaceLDA (ft)
13147°390175ASPH
31327°390175ASPH

Airport contact information

Address: Tulare United States

Satellite view of KTLR